sensor_id;sensor_type;location;lat;lon;timestamp;P1;durP1;ratioP1;P2;durP2;ratioP2
4980;SDS011;2507;50.392;7.482;2023-08-31T00:01:29;6.43;;;3.67;;
4980;SDS011;2507;50.392;7.482;2023-08-31T00:03:54;9.13;;;4.43;;
4980;SDS011;2507;50.392;7.482;2023-08-31T00:06:20;4.77;;;3.93;;
4980;SDS011;2507;50.392;7.482;2023-08-31T00:08:46;4.00;;;3.70;;
4980;SDS011;2507;50.392;7.482;2023-08-31T00:11:12;4.10;;;3.70;;
4980;SDS011;2507;50.392;7.482;2023-08-31T00:13:37;4.00;;;3.70;;
4980;SDS011;2507;50.392;7.482;2023-08-31T00:16:03;4.23;;;3.80;;
4980;SDS011;2507;50.392;7.482;2023-08-31T00:18:30;4.07;;;3.57;;
4980;SDS011;2507;50.392;7.482;2023-08-31T00:20:55;5.80;;;4.30;;
4980;SDS011;2507;50.392;7.482;2023-08-31T00:23:20;5.47;;;3.60;;
4980;SDS011;2507;50.392;7.482;2023-08-31T00:25:46;5.60;;;3.57;;
4980;SDS011;2507;50.392;7.482;2023-08-31T00:28:17;4.60;;;4.00;;
4980;SDS011;2507;50.392;7.482;2023-08-31T00:30:43;4.90;;;4.30;;
4980;SDS011;2507;50.392;7.482;2023-08-31T00:33:09;6.23;;;4.20;;
4980;SDS011;2507;50.392;7.482;2023-08-31T00:35:35;7.53;;;5.10;;
4980;SDS011;2507;50.392;7.482;2023-08-31T00:38:00;7.33;;;5.40;;
4980;SDS011;2507;50.392;7.482;2023-08-31T00:40:27;5.43;;;4.93;;
4980;SDS011;2507;50.392;7.482;2023-08-31T00:42:53;9.53;;;5.23;;
4980;SDS011;2507;50.392;7.482;2023-08-31T00:45:18;5.27;;;4.87;;
4980;SDS011;2507;50.392;7.482;2023-08-31T00:47:44;7.13;;;5.60;;
4980;SDS011;2507;50.392;7.482;2023-08-31T00:50:12;7.07;;;5.50;;
4980;SDS011;2507;50.392;7.482;2023-08-31T00:52:37;5.70;;;4.97;;
4980;SDS011;2507;50.392;7.482;2023-08-31T00:55:03;11.47;;;5.47;;
4980;SDS011;2507;50.392;7.482;2023-08-31T00:57:33;7.50;;;5.50;;
4980;SDS011;2507;50.392;7.482;2023-08-31T00:59:58;5.50;;;5.10;;
4980;SDS011;2507;50.392;7.482;2023-08-31T01:05:03;6.13;;;5.57;;
4980;SDS011;2507;50.392;7.482;2023-08-31T01:07:46;7.40;;;5.30;;
4980;SDS011;2507;50.392;7.482;2023-08-31T01:10:22;8.23;;;5.10;;
4980;SDS011;2507;50.392;7.482;2023-08-31T01:12:56;7.83;;;5.67;;
4980;SDS011;2507;50.392;7.482;2023-08-31T01:15:28;5.47;;;4.97;;
4980;SDS011;2507;50.392;7.482;2023-08-31T01:17:57;7.23;;;5.33;;
4980;SDS011;2507;50.392;7.482;2023-08-31T01:20:31;5.57;;;5.07;;
4980;SDS011;2507;50.392;7.482;2023-08-31T01:23:15;6.27;;;5.87;;
4980;SDS011;2507;50.392;7.482;2023-08-31T01:25:43;10.57;;;5.80;;
4980;SDS011;2507;50.392;7.482;2023-08-31T01:28:09;7.27;;;5.93;;
4980;SDS011;2507;50.392;7.482;2023-08-31T01:30:35;5.90;;;5.40;;
4980;SDS011;2507;50.392;7.482;2023-08-31T01:33:01;5.63;;;5.23;;
4980;SDS011;2507;50.392;7.482;2023-08-31T01:35:27;7.20;;;6.07;;
4980;SDS011;2507;50.392;7.482;2023-08-31T01:37:57;5.60;;;5.10;;
4980;SDS011;2507;50.392;7.482;2023-08-31T01:40:27;6.00;;;5.43;;
4980;SDS011;2507;50.392;7.482;2023-08-31T01:43:21;10.03;;;5.90;;
4980;SDS011;2507;50.392;7.482;2023-08-31T01:45:48;5.73;;;5.30;;
4980;SDS011;2507;50.392;7.482;2023-08-31T01:48:13;6.77;;;5.40;;
4980;SDS011;2507;50.392;7.482;2023-08-31T01:50:40;5.70;;;5.10;;
4980;SDS011;2507;50.392;7.482;2023-08-31T01:53:05;6.77;;;5.53;;
4980;SDS011;2507;50.392;7.482;2023-08-31T01:55:31;6.40;;;5.80;;
4980;SDS011;2507;50.392;7.482;2023-08-31T01:57:57;5.07;;;4.67;;
4980;SDS011;2507;50.392;7.482;2023-08-31T02:00:22;5.60;;;5.20;;
4980;SDS011;2507;50.392;7.482;2023-08-31T02:02:48;6.30;;;5.70;;
4980;SDS011;2507;50.392;7.482;2023-08-31T02:05:14;5.80;;;5.40;;
4980;SDS011;2507;50.392;7.482;2023-08-31T02:07:39;5.30;;;4.90;;
4980;SDS011;2507;50.392;7.482;2023-08-31T02:10:05;5.63;;;5.13;;
4980;SDS011;2507;50.392;7.482;2023-08-31T02:12:31;6.63;;;5.80;;
4980;SDS011;2507;50.392;7.482;2023-08-31T02:14:57;5.60;;;5.10;;
4980;SDS011;2507;50.392;7.482;2023-08-31T02:17:22;7.00;;;5.60;;
4980;SDS011;2507;50.392;7.482;2023-08-31T02:19:47;5.87;;;5.43;;
4980;SDS011;2507;50.392;7.482;2023-08-31T02:22:13;10.00;;;5.80;;
4980;SDS011;2507;50.392;7.482;2023-08-31T02:24:38;7.57;;;5.90;;
4980;SDS011;2507;50.392;7.482;2023-08-31T02:27:03;6.60;;;5.17;;
4980;SDS011;2507;50.392;7.482;2023-08-31T02:29:29;8.57;;;6.47;;
4980;SDS011;2507;50.392;7.482;2023-08-31T02:31:54;6.57;;;5.90;;
4980;SDS011;2507;50.392;7.482;2023-08-31T02:34:19;5.77;;;5.20;;
4980;SDS011;2507;50.392;7.482;2023-08-31T02:36:45;6.97;;;5.47;;
4980;SDS011;2507;50.392;7.482;2023-08-31T02:39:10;6.77;;;6.27;;
4980;SDS011;2507;50.392;7.482;2023-08-31T02:41:36;6.33;;;5.80;;
4980;SDS011;2507;50.392;7.482;2023-08-31T02:44:01;6.93;;;5.87;;
4980;SDS011;2507;50.392;7.482;2023-08-31T02:46:26;8.13;;;6.83;;
4980;SDS011;2507;50.392;7.482;2023-08-31T02:48:52;6.30;;;5.80;;
4980;SDS011;2507;50.392;7.482;2023-08-31T02:51:17;6.53;;;5.93;;
4980;SDS011;2507;50.392;7.482;2023-08-31T02:53:42;8.90;;;5.90;;
4980;SDS011;2507;50.392;7.482;2023-08-31T02:56:07;8.00;;;6.07;;
4980;SDS011;2507;50.392;7.482;2023-08-31T02:58:33;6.70;;;6.00;;
4980;SDS011;2507;50.392;7.482;2023-08-31T03:03:36;6.70;;;5.50;;
4980;SDS011;2507;50.392;7.482;2023-08-31T03:06:01;6.77;;;6.10;;
4980;SDS011;2507;50.392;7.482;2023-08-31T03:08:27;7.20;;;5.90;;
4980;SDS011;2507;50.392;7.482;2023-08-31T03:10:52;5.80;;;5.30;;
4980;SDS011;2507;50.392;7.482;2023-08-31T03:13:18;5.80;;;5.40;;
4980;SDS011;2507;50.392;7.482;2023-08-31T03:15:43;6.83;;;5.13;;
4980;SDS011;2507;50.392;7.482;2023-08-31T03:18:08;6.63;;;5.70;;
4980;SDS011;2507;50.392;7.482;2023-08-31T03:20:34;7.20;;;4.87;;
4980;SDS011;2507;50.392;7.482;2023-08-31T03:22:59;6.00;;;5.30;;
4980;SDS011;2507;50.392;7.482;2023-08-31T03:25:24;6.30;;;5.10;;
4980;SDS011;2507;50.392;7.482;2023-08-31T03:27:49;6.90;;;6.30;;
4980;SDS011;2507;50.392;7.482;2023-08-31T03:30:15;5.53;;;5.03;;
4980;SDS011;2507;50.392;7.482;2023-08-31T03:32:40;5.70;;;5.20;;
4980;SDS011;2507;50.392;7.482;2023-08-31T03:35:07;5.20;;;4.30;;
4980;SDS011;2507;50.392;7.482;2023-08-31T03:37:32;4.83;;;4.43;;
4980;SDS011;2507;50.392;7.482;2023-08-31T03:39:58;4.60;;;4.27;;
4980;SDS011;2507;50.392;7.482;2023-08-31T03:42:23;7.43;;;5.33;;
4980;SDS011;2507;50.392;7.482;2023-08-31T03:44:49;8.30;;;5.13;;
4980;SDS011;2507;50.392;7.482;2023-08-31T03:47:14;7.67;;;5.10;;
4980;SDS011;2507;50.392;7.482;2023-08-31T03:49:39;5.30;;;4.80;;
4980;SDS011;2507;50.392;7.482;2023-08-31T03:52:05;7.43;;;5.30;;
4980;SDS011;2507;50.392;7.482;2023-08-31T03:54:30;9.60;;;5.23;;
4980;SDS011;2507;50.392;7.482;2023-08-31T03:56:55;6.20;;;5.03;;
4980;SDS011;2507;50.392;7.482;2023-08-31T03:59:21;5.33;;;4.80;;
4980;SDS011;2507;50.392;7.482;2023-08-31T04:01:46;5.40;;;4.90;;
4980;SDS011;2507;50.392;7.482;2023-08-31T04:04:11;7.83;;;5.13;;
4980;SDS011;2507;50.392;7.482;2023-08-31T04:06:37;6.50;;;4.70;;
4980;SDS011;2507;50.392;7.482;2023-08-31T04:09:02;5.83;;;4.87;;
4980;SDS011;2507;50.392;7.482;2023-08-31T04:11:28;5.17;;;4.77;;
4980;SDS011;2507;50.392;7.482;2023-08-31T04:13:53;6.40;;;4.40;;
4980;SDS011;2507;50.392;7.482;2023-08-31T04:16:18;4.63;;;4.20;;
4980;SDS011;2507;50.392;7.482;2023-08-31T04:18:43;4.53;;;4.13;;
4980;SDS011;2507;50.392;7.482;2023-08-31T04:21:12;5.30;;;4.80;;
4980;SDS011;2507;50.392;7.482;2023-08-31T04:23:38;5.60;;;4.87;;
4980;SDS011;2507;50.392;7.482;2023-08-31T04:26:13;6.17;;;5.57;;
4980;SDS011;2507;50.392;7.482;2023-08-31T04:28:39;6.37;;;5.10;;
4980;SDS011;2507;50.392;7.482;2023-08-31T04:31:06;5.70;;;5.30;;
4980;SDS011;2507;50.392;7.482;2023-08-31T04:33:35;5.57;;;5.07;;
4980;SDS011;2507;50.392;7.482;2023-08-31T04:36:03;7.17;;;5.17;;
4980;SDS011;2507;50.392;7.482;2023-08-31T04:38:29;6.03;;;4.47;;
4980;SDS011;2507;50.392;7.482;2023-08-31T04:40:57;5.10;;;4.70;;
4980;SDS011;2507;50.392;7.482;2023-08-31T04:43:24;11.23;;;6.00;;
4980;SDS011;2507;50.392;7.482;2023-08-31T04:45:51;6.80;;;5.33;;
4980;SDS011;2507;50.392;7.482;2023-08-31T04:48:16;7.27;;;5.60;;
4980;SDS011;2507;50.392;7.482;2023-08-31T04:50:42;6.27;;;5.67;;
4980;SDS011;2507;50.392;7.482;2023-08-31T04:53:07;8.47;;;5.30;;
4980;SDS011;2507;50.392;7.482;2023-08-31T04:55:32;5.47;;;5.07;;
4980;SDS011;2507;50.392;7.482;2023-08-31T04:57:58;7.37;;;4.90;;
4980;SDS011;2507;50.392;7.482;2023-08-31T05:00:23;5.97;;;5.17;;
4980;SDS011;2507;50.392;7.482;2023-08-31T05:02:48;5.57;;;5.07;;
4980;SDS011;2507;50.392;7.482;2023-08-31T05:05:14;6.47;;;5.83;;
4980;SDS011;2507;50.392;7.482;2023-08-31T05:07:39;7.77;;;5.70;;
4980;SDS011;2507;50.392;7.482;2023-08-31T05:10:04;5.97;;;5.10;;
4980;SDS011;2507;50.392;7.482;2023-08-31T05:12:31;7.50;;;5.40;;
4980;SDS011;2507;50.392;7.482;2023-08-31T05:14:56;6.20;;;5.60;;
4980;SDS011;2507;50.392;7.482;2023-08-31T05:17:21;6.53;;;5.83;;
4980;SDS011;2507;50.392;7.482;2023-08-31T05:19:46;5.50;;;5.10;;
4980;SDS011;2507;50.392;7.482;2023-08-31T05:22:12;10.60;;;5.13;;
4980;SDS011;2507;50.392;7.482;2023-08-31T05:24:37;5.70;;;4.37;;
4980;SDS011;2507;50.392;7.482;2023-08-31T05:27:03;5.13;;;4.67;;
4980;SDS011;2507;50.392;7.482;2023-08-31T05:29:29;5.47;;;4.90;;
4980;SDS011;2507;50.392;7.482;2023-08-31T05:31:54;5.40;;;4.33;;
4980;SDS011;2507;50.392;7.482;2023-08-31T05:34:24;4.77;;;4.33;;
4980;SDS011;2507;50.392;7.482;2023-08-31T05:36:49;8.80;;;4.40;;
4980;SDS011;2507;50.392;7.482;2023-08-31T05:39:15;11.43;;;4.30;;
4980;SDS011;2507;50.392;7.482;2023-08-31T05:41:41;4.13;;;3.83;;
4980;SDS011;2507;50.392;7.482;2023-08-31T05:44:07;8.47;;;4.00;;
4980;SDS011;2507;50.392;7.482;2023-08-31T05:46:33;4.87;;;3.70;;
4980;SDS011;2507;50.392;7.482;2023-08-31T05:48:58;4.53;;;4.10;;
4980;SDS011;2507;50.392;7.482;2023-08-31T05:51:24;4.23;;;3.70;;
4980;SDS011;2507;50.392;7.482;2023-08-31T05:53:49;6.33;;;3.30;;
4980;SDS011;2507;50.392;7.482;2023-08-31T05:56:14;3.93;;;3.57;;
4980;SDS011;2507;50.392;7.482;2023-08-31T05:58:40;4.87;;;3.57;;
4980;SDS011;2507;50.392;7.482;2023-08-31T06:01:05;3.77;;;3.47;;
4980;SDS011;2507;50.392;7.482;2023-08-31T06:03:31;4.47;;;3.47;;
4980;SDS011;2507;50.392;7.482;2023-08-31T06:05:57;5.63;;;3.30;;
4980;SDS011;2507;50.392;7.482;2023-08-31T06:08:22;4.63;;;2.60;;
4980;SDS011;2507;50.392;7.482;2023-08-31T06:10:48;2.83;;;2.63;;
4980;SDS011;2507;50.392;7.482;2023-08-31T06:13:14;6.77;;;2.90;;
4980;SDS011;2507;50.392;7.482;2023-08-31T06:15:39;3.10;;;2.80;;
4980;SDS011;2507;50.392;7.482;2023-08-31T06:18:05;4.80;;;3.00;;
4980;SDS011;2507;50.392;7.482;2023-08-31T06:20:30;5.93;;;2.77;;
4980;SDS011;2507;50.392;7.482;2023-08-31T06:22:56;3.50;;;3.27;;
4980;SDS011;2507;50.392;7.482;2023-08-31T06:25:21;3.67;;;2.50;;
4980;SDS011;2507;50.392;7.482;2023-08-31T06:27:48;4.60;;;2.70;;
4980;SDS011;2507;50.392;7.482;2023-08-31T06:30:13;3.43;;;2.57;;
4980;SDS011;2507;50.392;7.482;2023-08-31T06:32:42;3.30;;;2.23;;
4980;SDS011;2507;50.392;7.482;2023-08-31T06:35:11;2.50;;;2.10;;
4980;SDS011;2507;50.392;7.482;2023-08-31T06:37:38;4.30;;;2.37;;
4980;SDS011;2507;50.392;7.482;2023-08-31T06:40:05;3.57;;;2.33;;
4980;SDS011;2507;50.392;7.482;2023-08-31T06:42:31;4.60;;;2.70;;
4980;SDS011;2507;50.392;7.482;2023-08-31T06:44:56;3.70;;;2.77;;
4980;SDS011;2507;50.392;7.482;2023-08-31T06:47:22;2.80;;;2.60;;
4980;SDS011;2507;50.392;7.482;2023-08-31T06:49:47;3.40;;;2.20;;
4980;SDS011;2507;50.392;7.482;2023-08-31T06:52:12;3.50;;;2.57;;
4980;SDS011;2507;50.392;7.482;2023-08-31T06:54:38;9.23;;;2.70;;
4980;SDS011;2507;50.392;7.482;2023-08-31T06:57:03;3.90;;;2.97;;
4980;SDS011;2507;50.392;7.482;2023-08-31T06:59:29;7.63;;;3.00;;
4980;SDS011;2507;50.392;7.482;2023-08-31T07:01:54;2.80;;;2.60;;
4980;SDS011;2507;50.392;7.482;2023-08-31T07:04:19;6.40;;;2.63;;
4980;SDS011;2507;50.392;7.482;2023-08-31T07:06:44;3.07;;;2.47;;
4980;SDS011;2507;50.392;7.482;2023-08-31T07:09:10;2.93;;;2.53;;
4980;SDS011;2507;50.392;7.482;2023-08-31T07:11:35;4.23;;;2.80;;
4980;SDS011;2507;50.392;7.482;2023-08-31T07:14:00;6.87;;;2.37;;
4980;SDS011;2507;50.392;7.482;2023-08-31T07:16:26;4.00;;;2.53;;
4980;SDS011;2507;50.392;7.482;2023-08-31T07:18:51;3.03;;;1.93;;
4980;SDS011;2507;50.392;7.482;2023-08-31T07:21:17;4.60;;;2.37;;
4980;SDS011;2507;50.392;7.482;2023-08-31T07:23:42;3.80;;;2.80;;
4980;SDS011;2507;50.392;7.482;2023-08-31T07:26:07;2.37;;;2.17;;
4980;SDS011;2507;50.392;7.482;2023-08-31T07:28:33;5.43;;;3.20;;
4980;SDS011;2507;50.392;7.482;2023-08-31T07:31:02;3.20;;;2.30;;
4980;SDS011;2507;50.392;7.482;2023-08-31T07:33:32;4.20;;;2.40;;
4980;SDS011;2507;50.392;7.482;2023-08-31T07:35:58;3.33;;;2.67;;
4980;SDS011;2507;50.392;7.482;2023-08-31T07:38:24;3.33;;;2.27;;
4980;SDS011;2507;50.392;7.482;2023-08-31T07:40:50;2.70;;;2.10;;
4980;SDS011;2507;50.392;7.482;2023-08-31T07:43:16;6.33;;;3.07;;
4980;SDS011;2507;50.392;7.482;2023-08-31T07:45:42;3.60;;;2.70;;
4980;SDS011;2507;50.392;7.482;2023-08-31T07:48:07;7.70;;;2.90;;
4980;SDS011;2507;50.392;7.482;2023-08-31T07:50:32;5.53;;;2.70;;
4980;SDS011;2507;50.392;7.482;2023-08-31T07:52:59;4.63;;;2.87;;
4980;SDS011;2507;50.392;7.482;2023-08-31T07:55:24;3.87;;;2.37;;
4980;SDS011;2507;50.392;7.482;2023-08-31T07:57:50;4.67;;;2.27;;
4980;SDS011;2507;50.392;7.482;2023-08-31T08:00:15;10.10;;;2.60;;
4980;SDS011;2507;50.392;7.482;2023-08-31T08:02:40;5.33;;;2.50;;
4980;SDS011;2507;50.392;7.482;2023-08-31T08:05:06;3.20;;;2.23;;
4980;SDS011;2507;50.392;7.482;2023-08-31T08:07:31;3.43;;;2.13;;
4980;SDS011;2507;50.392;7.482;2023-08-31T08:09:57;4.33;;;2.70;;
4980;SDS011;2507;50.392;7.482;2023-08-31T08:12:22;6.00;;;2.97;;
4980;SDS011;2507;50.392;7.482;2023-08-31T08:14:48;2.27;;;2.07;;
4980;SDS011;2507;50.392;7.482;2023-08-31T08:17:13;5.47;;;2.83;;
4980;SDS011;2507;50.392;7.482;2023-08-31T08:19:39;4.63;;;2.50;;
4980;SDS011;2507;50.392;7.482;2023-08-31T08:22:04;4.10;;;2.40;;
4980;SDS011;2507;50.392;7.482;2023-08-31T08:24:29;2.93;;;1.80;;
4980;SDS011;2507;50.392;7.482;2023-08-31T08:26:54;5.73;;;2.63;;
4980;SDS011;2507;50.392;7.482;2023-08-31T08:29:20;4.13;;;2.40;;
4980;SDS011;2507;50.392;7.482;2023-08-31T08:31:45;3.23;;;2.00;;
4980;SDS011;2507;50.392;7.482;2023-08-31T08:34:10;3.43;;;2.10;;
4980;SDS011;2507;50.392;7.482;2023-08-31T08:36:35;5.17;;;2.47;;
4980;SDS011;2507;50.392;7.482;2023-08-31T08:39:01;6.80;;;2.70;;
4980;SDS011;2507;50.392;7.482;2023-08-31T08:41:26;3.47;;;2.17;;
4980;SDS011;2507;50.392;7.482;2023-08-31T08:43:54;3.03;;;2.27;;
4980;SDS011;2507;50.392;7.482;2023-08-31T08:46:26;2.17;;;2.00;;
4980;SDS011;2507;50.392;7.482;2023-08-31T08:48:52;10.83;;;2.67;;
4980;SDS011;2507;50.392;7.482;2023-08-31T08:51:19;7.97;;;2.97;;
4980;SDS011;2507;50.392;7.482;2023-08-31T08:53:45;5.30;;;2.17;;
4980;SDS011;2507;50.392;7.482;2023-08-31T08:56:11;2.27;;;2.00;;
4980;SDS011;2507;50.392;7.482;2023-08-31T08:58:36;5.67;;;2.17;;
4980;SDS011;2507;50.392;7.482;2023-08-31T09:01:02;3.40;;;2.10;;
4980;SDS011;2507;50.392;7.482;2023-08-31T09:03:31;4.43;;;2.23;;
4980;SDS011;2507;50.392;7.482;2023-08-31T09:05:56;4.47;;;2.00;;
4980;SDS011;2507;50.392;7.482;2023-08-31T09:08:26;3.83;;;1.87;;
4980;SDS011;2507;50.392;7.482;2023-08-31T09:10:56;2.50;;;2.20;;
4980;SDS011;2507;50.392;7.482;2023-08-31T09:13:25;2.43;;;1.90;;
4980;SDS011;2507;50.392;7.482;2023-08-31T09:15:52;4.63;;;3.60;;
4980;SDS011;2507;50.392;7.482;2023-08-31T09:18:27;2.97;;;1.97;;
4980;SDS011;2507;50.392;7.482;2023-08-31T09:20:55;4.33;;;2.80;;
4980;SDS011;2507;50.392;7.482;2023-08-31T09:23:24;3.80;;;2.40;;
4980;SDS011;2507;50.392;7.482;2023-08-31T09:25:50;4.03;;;2.60;;
4980;SDS011;2507;50.392;7.482;2023-08-31T09:28:28;6.00;;;2.20;;
4980;SDS011;2507;50.392;7.482;2023-08-31T09:31:03;5.50;;;1.90;;
4980;SDS011;2507;50.392;7.482;2023-08-31T09:33:34;3.30;;;2.50;;
4980;SDS011;2507;50.392;7.482;2023-08-31T09:36:01;5.50;;;2.80;;
4980;SDS011;2507;50.392;7.482;2023-08-31T09:38:27;6.20;;;2.80;;
4980;SDS011;2507;50.392;7.482;2023-08-31T09:41:03;5.20;;;1.90;;
4980;SDS011;2507;50.392;7.482;2023-08-31T09:43:31;6.30;;;2.30;;
4980;SDS011;2507;50.392;7.482;2023-08-31T09:45:57;2.10;;;1.90;;
4980;SDS011;2507;50.392;7.482;2023-08-31T09:48:24;2.43;;;2.03;;
4980;SDS011;2507;50.392;7.482;2023-08-31T09:50:52;4.23;;;2.10;;
4980;SDS011;2507;50.392;7.482;2023-08-31T09:53:19;4.63;;;2.33;;
4980;SDS011;2507;50.392;7.482;2023-08-31T09:55:46;7.00;;;2.00;;
4980;SDS011;2507;50.392;7.482;2023-08-31T09:58:13;8.93;;;2.40;;
4980;SDS011;2507;50.392;7.482;2023-08-31T10:00:42;3.00;;;2.13;;
4980;SDS011;2507;50.392;7.482;2023-08-31T10:03:11;7.40;;;2.67;;
4980;SDS011;2507;50.392;7.482;2023-08-31T10:05:43;4.60;;;2.47;;
4980;SDS011;2507;50.392;7.482;2023-08-31T10:08:10;4.03;;;2.20;;
4980;SDS011;2507;50.392;7.482;2023-08-31T10:10:36;6.67;;;3.67;;
4980;SDS011;2507;50.392;7.482;2023-08-31T10:13:03;6.60;;;3.80;;
4980;SDS011;2507;50.392;7.482;2023-08-31T10:15:31;8.00;;;3.83;;
4980;SDS011;2507;50.392;7.482;2023-08-31T10:17:58;5.60;;;4.40;;
4980;SDS011;2507;50.392;7.482;2023-08-31T10:20:25;4.70;;;2.93;;
4980;SDS011;2507;50.392;7.482;2023-08-31T10:22:53;8.50;;;3.60;;
4980;SDS011;2507;50.392;7.482;2023-08-31T10:25:19;27.37;;;5.50;;
4980;SDS011;2507;50.392;7.482;2023-08-31T10:27:45;3.60;;;2.60;;
4980;SDS011;2507;50.392;7.482;2023-08-31T10:38:33;2.13;;;2.00;;
4980;SDS011;2507;50.392;7.482;2023-08-31T10:41:00;4.13;;;1.97;;
4980;SDS011;2507;50.392;7.482;2023-08-31T10:43:43;3.83;;;2.03;;
4980;SDS011;2507;50.392;7.482;2023-08-31T10:48:52;3.23;;;2.00;;
4980;SDS011;2507;50.392;7.482;2023-08-31T10:51:22;3.27;;;2.20;;
4980;SDS011;2507;50.392;7.482;2023-08-31T10:53:52;2.67;;;2.17;;
4980;SDS011;2507;50.392;7.482;2023-08-31T10:56:29;3.27;;;1.77;;
4980;SDS011;2507;50.392;7.482;2023-08-31T10:58:56;6.80;;;2.03;;
4980;SDS011;2507;50.392;7.482;2023-08-31T11:01:57;3.30;;;2.10;;
4980;SDS011;2507;50.392;7.482;2023-08-31T11:04:21;2.63;;;1.90;;
4980;SDS011;2507;50.392;7.482;2023-08-31T11:06:47;2.33;;;2.13;;
4980;SDS011;2507;50.392;7.482;2023-08-31T11:09:19;4.07;;;2.27;;
4980;SDS011;2507;50.392;7.482;2023-08-31T11:11:46;5.50;;;1.77;;
4980;SDS011;2507;50.392;7.482;2023-08-31T11:14:12;4.97;;;2.07;;
4980;SDS011;2507;50.392;7.482;2023-08-31T11:16:38;4.33;;;2.60;;
4980;SDS011;2507;50.392;7.482;2023-08-31T11:19:04;5.23;;;1.90;;
4980;SDS011;2507;50.392;7.482;2023-08-31T11:21:29;10.20;;;2.50;;
4980;SDS011;2507;50.392;7.482;2023-08-31T11:23:56;4.60;;;2.10;;
4980;SDS011;2507;50.392;7.482;2023-08-31T11:26:23;4.60;;;1.67;;
4980;SDS011;2507;50.392;7.482;2023-08-31T11:28:49;5.23;;;1.73;;
4980;SDS011;2507;50.392;7.482;2023-08-31T11:31:22;2.20;;;2.00;;
4980;SDS011;2507;50.392;7.482;2023-08-31T11:33:48;4.10;;;1.50;;
4980;SDS011;2507;50.392;7.482;2023-08-31T11:36:13;3.37;;;1.70;;
4980;SDS011;2507;50.392;7.482;2023-08-31T11:38:42;7.73;;;1.63;;
4980;SDS011;2507;50.392;7.482;2023-08-31T11:41:08;2.13;;;1.60;;
4980;SDS011;2507;50.392;7.482;2023-08-31T11:43:34;2.80;;;2.20;;
4980;SDS011;2507;50.392;7.482;2023-08-31T11:45:59;2.87;;;1.70;;
4980;SDS011;2507;50.392;7.482;2023-08-31T11:48:25;2.83;;;1.30;;
4980;SDS011;2507;50.392;7.482;2023-08-31T11:50:50;1.90;;;1.60;;
4980;SDS011;2507;50.392;7.482;2023-08-31T11:53:18;2.23;;;1.73;;
4980;SDS011;2507;50.392;7.482;2023-08-31T11:55:49;1.73;;;1.63;;
4980;SDS011;2507;50.392;7.482;2023-08-31T11:58:19;3.27;;;1.93;;
4980;SDS011;2507;50.392;7.482;2023-08-31T12:00:45;4.37;;;1.97;;
4980;SDS011;2507;50.392;7.482;2023-08-31T12:03:19;2.90;;;1.90;;
4980;SDS011;2507;50.392;7.482;2023-08-31T12:05:47;4.50;;;1.87;;
4980;SDS011;2507;50.392;7.482;2023-08-31T12:08:14;3.37;;;1.90;;
4980;SDS011;2507;50.392;7.482;2023-08-31T12:10:40;2.33;;;1.70;;
4980;SDS011;2507;50.392;7.482;2023-08-31T12:13:10;4.97;;;1.73;;
4980;SDS011;2507;50.392;7.482;2023-08-31T12:15:36;4.50;;;2.10;;
4980;SDS011;2507;50.392;7.482;2023-08-31T12:18:14;3.30;;;1.87;;
4980;SDS011;2507;50.392;7.482;2023-08-31T12:20:42;2.20;;;1.60;;
4980;SDS011;2507;50.392;7.482;2023-08-31T12:23:09;1.93;;;1.83;;
4980;SDS011;2507;50.392;7.482;2023-08-31T12:25:35;1.90;;;1.60;;
4980;SDS011;2507;50.392;7.482;2023-08-31T12:28:00;7.47;;;1.73;;
4980;SDS011;2507;50.392;7.482;2023-08-31T12:30:26;3.87;;;2.53;;
4980;SDS011;2507;50.392;7.482;2023-08-31T12:32:51;1.93;;;1.50;;
4980;SDS011;2507;50.392;7.482;2023-08-31T12:35:17;2.30;;;1.60;;
4980;SDS011;2507;50.392;7.482;2023-08-31T12:37:42;2.50;;;1.70;;
4980;SDS011;2507;50.392;7.482;2023-08-31T12:40:07;2.30;;;1.60;;
4980;SDS011;2507;50.392;7.482;2023-08-31T12:42:34;4.57;;;2.90;;
4980;SDS011;2507;50.392;7.482;2023-08-31T12:45:00;8.50;;;1.67;;
4980;SDS011;2507;50.392;7.482;2023-08-31T12:47:25;2.43;;;1.90;;
4980;SDS011;2507;50.392;7.482;2023-08-31T12:49:51;2.20;;;1.57;;
4980;SDS011;2507;50.392;7.482;2023-08-31T12:52:16;3.40;;;1.80;;
4980;SDS011;2507;50.392;7.482;2023-08-31T12:54:41;2.43;;;1.77;;
4980;SDS011;2507;50.392;7.482;2023-08-31T12:57:06;1.63;;;1.40;;
4980;SDS011;2507;50.392;7.482;2023-08-31T12:59:32;2.20;;;1.50;;
4980;SDS011;2507;50.392;7.482;2023-08-31T13:01:57;4.13;;;1.80;;
4980;SDS011;2507;50.392;7.482;2023-08-31T13:04:22;2.30;;;1.50;;
4980;SDS011;2507;50.392;7.482;2023-08-31T13:06:48;4.27;;;1.80;;
4980;SDS011;2507;50.392;7.482;2023-08-31T13:09:13;2.80;;;2.00;;
4980;SDS011;2507;50.392;7.482;2023-08-31T13:11:39;3.20;;;1.63;;
4980;SDS011;2507;50.392;7.482;2023-08-31T13:14:04;3.33;;;2.00;;
4980;SDS011;2507;50.392;7.482;2023-08-31T13:16:30;3.07;;;1.60;;
4980;SDS011;2507;50.392;7.482;2023-08-31T13:18:55;2.03;;;1.80;;
4980;SDS011;2507;50.392;7.482;2023-08-31T13:21:20;16.30;;;1.97;;
4980;SDS011;2507;50.392;7.482;2023-08-31T13:23:45;5.33;;;1.60;;
4980;SDS011;2507;50.392;7.482;2023-08-31T13:26:11;5.00;;;1.67;;
4980;SDS011;2507;50.392;7.482;2023-08-31T13:28:37;2.30;;;2.10;;
4980;SDS011;2507;50.392;7.482;2023-08-31T13:31:02;2.10;;;1.53;;
4980;SDS011;2507;50.392;7.482;2023-08-31T13:33:28;2.60;;;1.80;;
4980;SDS011;2507;50.392;7.482;2023-08-31T13:35:56;1.67;;;1.37;;
4980;SDS011;2507;50.392;7.482;2023-08-31T13:38:23;3.23;;;1.77;;
4980;SDS011;2507;50.392;7.482;2023-08-31T13:40:48;2.17;;;1.73;;
4980;SDS011;2507;50.392;7.482;2023-08-31T13:43:19;4.30;;;1.70;;
4980;SDS011;2507;50.392;7.482;2023-08-31T13:45:44;2.13;;;1.43;;
4980;SDS011;2507;50.392;7.482;2023-08-31T13:48:09;1.23;;;1.13;;
4980;SDS011;2507;50.392;7.482;2023-08-31T13:50:35;1.97;;;1.33;;
4980;SDS011;2507;50.392;7.482;2023-08-31T13:53:00;3.03;;;1.63;;
4980;SDS011;2507;50.392;7.482;2023-08-31T13:55:25;2.50;;;1.90;;
4980;SDS011;2507;50.392;7.482;2023-08-31T13:57:51;5.97;;;2.17;;
4980;SDS011;2507;50.392;7.482;2023-08-31T14:00:17;3.63;;;2.53;;
4980;SDS011;2507;50.392;7.482;2023-08-31T14:02:42;3.40;;;1.40;;
4980;SDS011;2507;50.392;7.482;2023-08-31T14:05:08;2.10;;;1.63;;
4980;SDS011;2507;50.392;7.482;2023-08-31T14:07:35;2.67;;;2.00;;
4980;SDS011;2507;50.392;7.482;2023-08-31T14:10:01;1.53;;;1.43;;
4980;SDS011;2507;50.392;7.482;2023-08-31T14:12:26;3.00;;;1.63;;
4980;SDS011;2507;50.392;7.482;2023-08-31T14:14:52;1.73;;;1.63;;
4980;SDS011;2507;50.392;7.482;2023-08-31T14:17:17;2.00;;;1.67;;
4980;SDS011;2507;50.392;7.482;2023-08-31T14:19:43;2.90;;;1.57;;
4980;SDS011;2507;50.392;7.482;2023-08-31T14:22:09;3.10;;;1.90;;
4980;SDS011;2507;50.392;7.482;2023-08-31T14:24:35;1.10;;;1.03;;
4980;SDS011;2507;50.392;7.482;2023-08-31T14:27:01;4.30;;;2.03;;
4980;SDS011;2507;50.392;7.482;2023-08-31T14:29:27;6.37;;;2.40;;
4980;SDS011;2507;50.392;7.482;2023-08-31T14:31:52;2.20;;;2.00;;
4980;SDS011;2507;50.392;7.482;2023-08-31T14:34:19;4.50;;;1.30;;
4980;SDS011;2507;50.392;7.482;2023-08-31T14:36:44;1.93;;;1.80;;
4980;SDS011;2507;50.392;7.482;2023-08-31T14:39:10;2.60;;;1.70;;
4980;SDS011;2507;50.392;7.482;2023-08-31T14:41:35;2.20;;;1.40;;
4980;SDS011;2507;50.392;7.482;2023-08-31T14:44:00;2.40;;;1.80;;
4980;SDS011;2507;50.392;7.482;2023-08-31T14:46:25;3.40;;;2.17;;
4980;SDS011;2507;50.392;7.482;2023-08-31T14:48:51;3.80;;;1.80;;
4980;SDS011;2507;50.392;7.482;2023-08-31T14:51:16;4.40;;;2.13;;
4980;SDS011;2507;50.392;7.482;2023-08-31T14:53:42;3.60;;;2.00;;
4980;SDS011;2507;50.392;7.482;2023-08-31T14:56:07;4.23;;;2.20;;
4980;SDS011;2507;50.392;7.482;2023-08-31T14:58:33;2.50;;;1.77;;
4980;SDS011;2507;50.392;7.482;2023-08-31T15:00:58;5.73;;;1.90;;
4980;SDS011;2507;50.392;7.482;2023-08-31T15:03:23;2.43;;;2.20;;
4980;SDS011;2507;50.392;7.482;2023-08-31T15:05:49;2.13;;;1.80;;
4980;SDS011;2507;50.392;7.482;2023-08-31T15:08:14;5.13;;;2.20;;
4980;SDS011;2507;50.392;7.482;2023-08-31T15:10:40;6.40;;;1.93;;
4980;SDS011;2507;50.392;7.482;2023-08-31T15:13:05;1.80;;;1.70;;
4980;SDS011;2507;50.392;7.482;2023-08-31T15:15:31;2.73;;;1.63;;
4980;SDS011;2507;50.392;7.482;2023-08-31T15:17:56;5.20;;;1.93;;
4980;SDS011;2507;50.392;7.482;2023-08-31T15:20:23;3.63;;;2.23;;
4980;SDS011;2507;50.392;7.482;2023-08-31T15:22:49;3.43;;;2.10;;
4980;SDS011;2507;50.392;7.482;2023-08-31T15:25:15;4.43;;;1.90;;
4980;SDS011;2507;50.392;7.482;2023-08-31T15:27:43;8.07;;;1.87;;